Main page
METAR-TAF:

METAR-TAF

Airports :

Athens, Greece

Athens International Airport

latitude: 37-56N, longitude: 023-56E, elevation: 94 m

Current weather observation

The report was made 18 minutes ago, at 18:50 UTC
Wind 4 kt from the West/Southwest
Temperature 9°C
Humidity 57%
Pressure 1016 hPa
Visibility 10 km or more
Few clouds at a height of 3000 ft

METAR: LGAV 191850Z 24004KT 9999 FEW030 09/01 Q1016 NOSIG

Time: 21:08 (19:08 UTC)

Forecast

The report was made 2 hours and 8 minutes ago, at 17:00 UTC
Forecast valid from 19 at 18 UTC to 20 at 18 UTC
Wind 5 kt from the Southwest
Visibility 10 km or more
Few clouds at a height of 2500 ft
Becoming
from 20 at 13 UTC to 20 at 15 UTC
Wind 15 kt from the South/Southwest
Scattered clouds at a height of 2500 ft
Broken clouds at a height of 7000 ft

TAF: LGAV 191700Z 1918/2018 23005KT 9999 FEW025 BECMG 2013/2015 21015KT SCT025 BKN070

Weather observations and forecasts of more than 4000 airports (METAR and TAF reports).

The available stations are represented by yellow and red dots on the map.

Hover mouse over dot to see the name of the station.

Then click to see weather observations and forecasts.

To change the map : click on the green buttons with a black cross to zoom in, on the green button with a dash to zoom out, or on the green arrows for adjacent maps.


METAR-TAF: